map of KIV home
KIV - Airport
Location
City:  Chisinau, Chisinau, Moldova
Near (Alt.):Kishinev, Kisinev
Name:Chisinau International Airport
ICAO:LUKK
IATA:KIV

Details
Type:Airport (Aerodrome, Airfield)
Use:Public/Civil, International (customs port of entry)
Latitude:4655'40"N (46.927744)
Longitude:2855'52"E (28.930978)
Datum:WGS 1984
Elevation:399 ft (122 m)
Variation:6.70E (WMM2015v2 magnetic declination)
0.13 annual change
Runways:1
Longest:11779 × 145 ft (3590 × 44 m), paved

Time
Time Zone:UTC+2 (DST+3)
Local Time:

Weather
METAR:LUKK 041400Z 01007KT 1500 R08/P2000U BR OVC001 07/07 Q1023 R08/190095 NOSIG
TAF:LUKK 041120Z 0412/0512 VRB04KT 0200 FG VV001
TEMPO 0413/0415 0500 VV002
BECMG 0415/0417 02009KT 0800 VV002
TEMPO 0417/0504 0300 DZ FG VV001
BECMG 0504/0506 1600 BR BKN003

Related Locations
Nearby:
Farthest:CHT: 11191 mi / 18010 km
Waitangi [Tuuta], CIT, NZ

Find:

   beyond  
but within

Other Information
Maps:
NOTAMs:
Links:
Sources:

  
  • flag of Moldova
  • flag of Chisinau
  

Sectional Chart

Flight Planning
at skyvector.com

Satellite Image

Google Maps Satellite view

 

Copyright © 2004-2019 Karl L. Swartz. All rights reserved.
The Great Circle Mapper name and logo are trademarks of the Great Circle Mapper.
All other trademarks mentioned herein belong to their respective owners.
Please see credits for attibutions and further copyright information.

  Follow gcmap on Facebook Follow gcmap on Twitter GCmap on LinkedIn

hCard Microformat

Geo Microformat